[Closed] ATC @ LFPG (Paris) - PG

  • Tower and Ground ATCs
  • Pattern Work accepted
  • Runways in use (27R, 27L, 26R, 26L)

METAR : LFPG 140230Z AUTO 25005KT 9999 FEW013 BKN021 BKN054 15/13 Q1002

Information can change depending on the weather
I’ll restart this session later

1 Like

This topic was automatically closed 90 days after the last reply. New replies are no longer allowed.